Holder, FL (34445)

3:29 PM EDT on October 01, 2014 (GMT -0400)
Beverly Hills | Change Station
CLOSE
Current Station
Personal Weather Station
Location: Citrus County, FL
Elevation: 62 ft
Nearby Weather Stations

Elev 62 ft 28.91 °N, 82.45 °W | Updated 17 minutes ago

Mostly Cloudy
Mostly Cloudy
90.8 °F
Feels Like 101 °F
N
0.0
Wind Variable Wind from NE
Gusts 0.0 mph

Today
High -- | Low -- °F
--% Chance of Precip.
Yesterday
High -- | Low -- °F
Precip. -- in
7:22 AM 7:15 PM
Waxing Crescent, 50% visible
Pressure 29.91 in
Visibility 10.0 miles
Clouds Mostly Cloudy 2800 ft
Mostly Cloudy 4300 ft
Mostly Cloudy 5500 ft
Heat Index 101 °F
Dew Point 74 °F
Humidity 59%
Rainfall 0.00 in
Snow Depth Not available.
UV 5 out of 12
Pollen 5.40 out of 12
Air Quality Not available.
Flu Activity Not available.
METAR KCGC 011855Z AUTO 32004KT 10SM BKN028 BKN043 BKN055 30/23 A2991 RMK AO2 PWINO

More Conditions Fewer Conditions

Pressure 29.91 in
Visibility 10.0 miles
Clouds Mostly Cloudy 2800 ft
Mostly Cloudy 4300 ft
Mostly Cloudy 5500 ft
Heat Index 101 °F
Dew Point 74 °F
Humidity 59%
Rainfall 0.00 in
Snow Depth Not available.
UV 5 out of 12
Pollen 5.40 out of 12
Air Quality Not available.
Flu Activity Not available.
METAR KCGC 011855Z AUTO 32004KT 10SM BKN028 BKN043 BKN055 30/23 A2991 RMK AO2 PWINO

More Conditions Fewer Conditions

10-Day Weather Forecast

Almanac

Astronomy

Oct. 01, 2014 Rise Set
Actual Time 7:22 AM EDT 7:15 PM EDT
Civil Twilight 6:59 AM EDT 7:39 PM EDT
Nautical Twilight 6:31 AM EDT 8:06 PM EDT
Astronomical Twilight 6:04 AM EDT 8:34 PM EDT
Moon 2:03 PM EDT 12:06 AM EDT
Length of Visible Light 12h 39m
Length of Day
11h 52m
Tomorrow will be 1m 42s shorter.
Waxing Crescent, 50% of the Moon is Illuminated
Today
Waxing Crescent
Oct 1
First Quarter
Oct 8
Full
Oct 15
Last Quarter
Oct 23
New

Today's Extremes

State Highs State Lows

Community

WunderPhotos

Upload Photos

1,758,010 photos uploaded!

WunderBlogs® & News

Nearby

Snow Depth

Station Depth Elevation
No new snow has been reported.

Earthquake Activity

City Distance Mag. Time & Date
No recent earthquake activity has been reported nearby.
Minimum magnitude displayed is 2.5.

Coastal Water Temperatures

Place Temperature
No Stations Reporting

Nearby Weather Stations